SKPC/PCR METAR and TAF weather

Enter ICAO airport designator
Station Type Date Time Source
SKPC METAR 2019/02/21 15:00 UTC NOAA

SKPC 211500Z 09007KT CAVOK 31/20 A2991


Station Type Date Time Source
SKPC Decoded METAR 2019/02/21 15:00 UTC NOAA

Puerto Carreno / A. Guauquea, Colombia (SKPC) 06-10N 067-30W
Feb 21, 2019 - 10:00 AM EST / 2019.02.21 1500 UTC
Wind: from the E (090 degrees) at 8 MPH (7 KT):0
Visibility: greater than 7 mile(s):0
Temperature: 87 F (31 C)
Dew Point: 68 F (20 C)
Relative Humidity: 52%
Pressure (altimeter): 29.91 in. Hg (1012 hPa)
ob: SKPC 211500Z 09007KT CAVOK 31/20 A2991
cycle: 15

Station Type Date Time Source
SKPC TAF UTC NOAA

Error!


Example: see airport list